createdAt,value
2022-10-27T00:02:23.926Z,100
2022-10-27T00:07:39.787Z,100
2022-10-27T00:12:52.288Z,100
2022-10-27T00:18:02.990Z,100
2022-10-27T00:23:16.006Z,100
2022-10-27T00:33:35.517Z,100
2022-10-27T00:38:48.717Z,100
2022-10-27T00:44:02.302Z,100
2022-10-27T00:54:32.901Z,100
2022-10-27T00:59:45.080Z,100
2022-10-27T01:05:01.343Z,100
2022-10-27T01:10:13.489Z,100
2022-10-27T01:20:47.172Z,100
2022-10-27T01:25:59.344Z,100
2022-10-27T01:31:12.922Z,100
2022-10-27T01:36:22.842Z,100
2022-10-27T01:41:33.286Z,100
2022-10-27T01:46:49.267Z,100
2022-10-27T01:52:02.281Z,100
2022-10-27T01:57:11.419Z,100
2022-10-27T02:02:27.840Z,100
2022-10-27T02:07:36.964Z,100
2022-10-27T02:12:47.487Z,100
2022-10-27T02:17:58.722Z,100
2022-10-27T02:23:10.897Z,100
2022-10-27T02:28:23.370Z,100
2022-10-27T02:33:34.616Z,100
2022-10-27T02:38:45.944Z,100
2022-10-27T02:43:55.582Z,100
2022-10-27T02:49:07.389Z,100
2022-10-27T02:54:20.495Z,100
2022-10-27T02:59:30.024Z,100
2022-10-27T03:04:44.492Z,100
2022-10-27T03:09:51.054Z,100
2022-10-27T03:15:02.594Z,100
2022-10-27T03:20:16.212Z,100
2022-10-27T03:25:24.736Z,100
2022-10-27T03:30:38.212Z,100
2022-10-27T03:35:47.718Z,100
2022-10-27T03:40:57.532Z,100
2022-10-27T03:46:08.346Z,100
2022-10-27T03:56:39.183Z,100
2022-10-27T04:01:52.123Z,100
2022-10-27T04:07:00.944Z,100
2022-10-27T04:12:12.208Z,100
2022-10-27T04:17:23.847Z,100
2022-10-27T04:22:37.043Z,100
2022-10-27T04:27:49.696Z,100
2022-10-27T04:33:02.605Z,100
2022-10-27T04:38:15.191Z,100
2022-10-27T04:43:26.945Z,100
2022-10-27T04:53:56.936Z,100
2022-10-27T04:59:09.889Z,100
2022-10-27T05:04:21.262Z,100
2022-10-27T05:09:34.787Z,100
2022-10-27T05:14:46.901Z,100
2022-10-27T05:19:57.914Z,100
2022-10-27T05:25:08.123Z,100
2022-10-27T05:30:19.785Z,100
2022-10-27T05:35:30.158Z,100
2022-10-27T05:40:40.191Z,100
2022-10-27T05:45:52.600Z,100
2022-10-27T05:51:03.490Z,100
2022-10-27T05:56:20.264Z,100
2022-10-27T06:06:53.505Z,100
2022-10-27T06:17:24.592Z,100
2022-10-27T06:22:36.730Z,100
2022-10-27T06:27:49.427Z,100
2022-10-27T06:32:59.910Z,100
2022-10-27T06:38:11.245Z,100
2022-10-27T06:43:26.405Z,100
2022-10-27T06:48:39.279Z,100
2022-10-27T06:53:50.868Z,100
2022-10-27T06:59:07.354Z,100
2022-10-27T07:04:23.715Z,100
2022-10-27T07:09:35.783Z,100
2022-10-27T07:14:48.412Z,100
2022-10-27T07:25:21.912Z,100
2022-10-27T07:30:34.352Z,100
2022-10-27T07:46:32.175Z,100
2022-10-27T07:51:44.373Z,100
2022-10-27T07:56:54.867Z,100
2022-10-27T08:07:29.528Z,100
2022-10-27T08:12:46.366Z,100
2022-10-27T08:17:57.899Z,100
2022-10-27T08:28:32.335Z,100
2022-10-27T08:33:48.410Z,100
2022-10-27T08:39:01.123Z,100
2022-10-27T08:49:49.054Z,100
2022-10-27T08:54:53.665Z,100
2022-10-27T09:05:28.253Z,100
2022-10-27T09:10:40.350Z,100
2022-10-27T09:15:52.887Z,100
2022-10-27T09:21:06.854Z,100
2022-10-27T09:31:41.768Z,100
2022-10-27T09:42:19.271Z,100
2022-10-27T09:47:31.618Z,100
2022-10-27T09:52:48.966Z,100
2022-10-27T09:58:02.873Z,100
2022-10-27T10:14:08.436Z,100
2022-10-27T10:30:04.103Z,100
2022-10-27T10:35:17.354Z,100
2022-10-27T10:51:14.333Z,100
2022-10-27T10:56:31.459Z,100
2022-10-27T11:01:47.051Z,100
2022-10-27T11:06:59.590Z,100
2022-10-27T11:12:13.783Z,100
2022-10-27T11:28:31.433Z,89.5
2022-10-27T11:33:44.065Z,93.3
2022-10-27T11:38:57.518Z,86.7
2022-10-27T11:44:10.655Z,91.3
2022-10-27T12:05:31.311Z,96.1
2022-10-27T12:10:44.872Z,91.6
2022-10-27T12:15:58.715Z,86.4
2022-10-27T12:26:35.855Z,86.4
2022-10-27T12:31:49.132Z,77.8
2022-10-27T12:37:24.054Z,77.8
2022-10-27T12:53:10.694Z,69.9
2022-10-27T12:58:20.245Z,64.8
2022-10-27T13:03:40.846Z,64.8
2022-10-27T13:08:55.033Z,59.3
2022-10-27T13:14:11.883Z,59.3
2022-10-27T13:19:31.139Z,59.3
2022-10-27T13:24:43.823Z,54.4
2022-10-27T13:30:01.392Z,54.4
2022-10-27T13:35:14.166Z,57.7
2022-10-27T13:40:33.925Z,61.4
2022-10-27T13:45:44.130Z,61.4
2022-10-27T14:12:26.307Z,48.7
2022-10-27T14:28:30.976Z,45.2
2022-10-27T14:39:03.489Z,47.5
2022-10-27T14:44:17.063Z,46
2022-10-27T14:54:58.420Z,46
2022-10-27T15:05:35.169Z,46.8
2022-10-27T15:10:47.944Z,46.8
2022-10-27T15:16:05.311Z,46.8
2022-10-27T15:21:22.472Z,46.8
2022-10-27T15:26:35.529Z,49.8
2022-10-27T15:31:48.287Z,49.8
2022-10-27T15:42:18.707Z,65.5
2022-10-27T15:47:28.246Z,85.6
2022-10-27T15:52:41.308Z,99.3
2022-10-27T15:57:52.936Z,100
2022-10-27T16:03:02.120Z,100
2022-10-27T16:13:34.186Z,100
2022-10-27T16:24:06.507Z,100
2022-10-27T16:29:19.383Z,100
2022-10-27T16:45:13.134Z,100
2022-10-27T17:06:29.673Z,100
2022-10-27T17:17:06.813Z,100
2022-10-27T17:22:23.791Z,100
2022-10-27T17:27:36.075Z,100
2022-10-27T17:43:37.849Z,100
2022-10-27T17:48:47.340Z,100
2022-10-27T17:59:19.378Z,100
2022-10-27T18:04:31.127Z,100
2022-10-27T18:20:26.726Z,100
2022-10-27T18:25:41.605Z,100
2022-10-27T18:36:08.717Z,100
2022-10-27T18:57:26.434Z,100
2022-10-27T19:18:43.643Z,100
2022-10-27T19:34:50.479Z,100
2022-10-27T19:39:54.648Z,100
2022-10-27T20:01:12.298Z,100
2022-10-27T20:06:27.567Z,100
2022-10-27T20:22:27.038Z,100
2022-10-27T20:44:10.251Z,100
2022-10-27T21:00:10.983Z,100
2022-10-27T21:21:26.331Z,100
2022-10-27T21:26:50.037Z,100
2022-10-27T21:37:30.536Z,100
2022-10-27T21:48:09.698Z,100
2022-10-27T21:53:33.459Z,100
2022-10-27T22:09:29.456Z,100
2022-10-27T22:25:29.289Z,100
2022-10-27T22:30:45.341Z,100
2022-10-27T22:52:29.057Z,100
2022-10-27T23:34:26.998Z,100
2022-10-27T23:50:30.088Z,100
2022-10-27T23:55:43.836Z,100
